Time;durP1;ratioP1;P1;durP2;ratioP2;P2;SDS_P1;SDS_P2;PMS_P1;PMS_P2;Temp;Humidity;BMP_temperature;BMP_pressure;BME280_temperature;BME280_humidity;BME280_pressure;Samples;Min_cycle;Max_cycle;Signal;HPM_P1;HPM_P2
2021/05/21 00:00:05;;;;;;;10.10;7.63;;;12.50;98.30;;;;;;5174717;23;20439;-87
2021/05/21 00:02:08;;;;;;;9.87;7.80;;;12.50;98.30;;;;;;5173574;23;20426;-86
2021/05/21 00:04:10;;;;;;;9.10;7.83;;;12.40;98.30;;;;;;5173406;22;20483;-86
2021/05/21 00:06:13;;;;;;;9.47;7.80;;;12.40;98.30;;;;;;5173461;23;20526;-86
2021/05/21 00:08:16;;;;;;;9.40;7.47;;;12.40;98.30;;;;;;5175611;23;20444;-86
2021/05/21 00:10:18;;;;;;;9.90;8.17;;;12.40;98.30;;;;;;5166784;23;20434;-87
2021/05/21 00:12:21;;;;;;;8.97;7.77;;;12.30;98.30;;;;;;5174439;23;20423;-86
2021/05/21 00:14:24;;;;;;;9.23;8.13;;;12.30;98.30;;;;;;5173301;22;20449;-86
2021/05/21 00:16:27;;;;;;;10.30;7.80;;;12.40;98.30;;;;;;5164834;23;20518;-85
2021/05/21 00:18:29;;;;;;;10.80;8.40;;;12.30;98.30;;;;;;5174007;23;20427;-86
2021/05/21 00:20:31;;;;;;;8.83;7.17;;;12.20;98.30;;;;;;5164876;23;20457;-85
2021/05/21 00:22:34;;;;;;;10.70;8.40;;;12.20;98.30;;;;;;5173696;23;20420;-86
2021/05/21 00:24:37;;;;;;;11.00;8.50;;;12.10;98.30;;;;;;5172353;22;20546;-85
2021/05/21 00:26:39;;;;;;;10.60;8.20;;;12.10;98.30;;;;;;5165832;23;21018;-85
2021/05/21 00:28:42;;;;;;;12.60;8.60;;;12.10;98.30;;;;;;5173846;23;20445;-85
2021/05/21 00:30:44;;;;;;;9.90;8.30;;;12.00;98.30;;;;;;5171897;23;20427;-86
2021/05/21 00:32:46;;;;;;;9.63;8.43;;;12.00;98.30;;;;;;5174770;23;20415;-86
2021/05/21 00:34:49;;;;;;;9.03;7.50;;;11.90;98.30;;;;;;5166307;22;20447;-87
2021/05/21 00:36:52;;;;;;;10.37;8.77;;;11.90;98.30;;;;;;5174612;23;20420;-87
2021/05/21 00:38:56;;;;;;;10.80;8.70;;;11.80;98.30;;;;;;5166021;23;20427;-86
2021/05/21 00:40:59;;;;;;;9.30;8.30;;;11.90;98.30;;;;;;5174155;23;20450;-86
2021/05/21 00:43:02;;;;;;;11.50;8.20;;;11.80;98.30;;;;;;5174697;23;20423;-86
2021/05/21 00:45:06;;;;;;;10.03;8.77;;;11.80;98.30;;;;;;5175262;22;20446;-86
2021/05/21 00:47:11;;;;;;;10.33;8.10;;;11.70;98.30;;;;;;5167844;23;20803;-86
2021/05/21 00:49:17;;;;;;;10.03;9.00;;;11.70;98.30;;;;;;5174426;23;20450;-87
2021/05/21 00:51:20;;;;;;;9.33;7.90;;;11.70;98.30;;;;;;5174601;23;20423;-86
2021/05/21 00:53:26;;;;;;;11.27;8.37;;;11.60;98.30;;;;;;5174449;23;20424;-86
2021/05/21 00:55:32;;;;;;;10.50;9.40;;;11.60;98.30;;;;;;5175651;23;20721;-86
2021/05/21 00:57:35;;;;;;;10.23;8.70;;;11.60;98.30;;;;;;5179485;22;20427;-87
2021/05/21 00:59:38;;;;;;;12.87;9.60;;;11.50;98.30;;;;;;5179199;23;20459;-86
2021/05/21 01:01:40;;;;;;;10.53;8.47;;;11.50;98.30;;;;;;5180139;23;20427;-87
2021/05/21 01:03:43;;;;;;;10.10;8.73;;;11.40;98.30;;;;;;5173831;22;20498;-86
2021/05/21 01:05:46;;;;;;;9.50;8.10;;;11.40;98.30;;;;;;5024519;23;20735;-86
2021/05/21 01:07:48;;;;;;;11.17;9.57;;;11.40;98.30;;;;;;5025114;23;20501;-87
2021/05/21 01:09:51;;;;;;;11.27;8.87;;;11.50;98.30;;;;;;5023370;23;20422;-86
2021/05/21 01:11:54;;;;;;;12.80;8.97;;;11.40;98.30;;;;;;5023283;23;20525;-86
2021/05/21 01:13:57;;;;;;;10.50;9.40;;;11.40;98.30;;;;;;5023669;23;20442;-86
2021/05/21 01:16:00;;;;;;;11.80;9.20;;;11.50;98.30;;;;;;5026393;23;20422;-87
2021/05/21 01:18:03;;;;;;;12.03;9.00;;;11.40;98.30;;;;;;5023019;23;20872;-86
2021/05/21 01:20:06;;;;;;;11.40;8.93;;;11.40;98.30;;;;;;5023258;23;20453;-87
2021/05/21 01:22:11;;;;;;;11.87;9.33;;;11.30;98.30;;;;;;5023029;23;20881;-87
2021/05/21 01:24:14;;;;;;;12.33;9.00;;;11.20;98.30;;;;;;5023132;23;20460;-87
2021/05/21 01:26:16;;;;;;;13.03;9.60;;;11.20;98.30;;;;;;5025832;23;20429;-86
2021/05/21 01:28:19;;;;;;;12.23;9.80;;;11.20;98.30;;;;;;5026560;23;20485;-86
2021/05/21 01:30:23;;;;;;;14.30;9.37;;;11.20;98.30;;;;;;5023506;23;20430;-86
2021/05/21 01:32:25;;;;;;;10.90;9.63;;;11.20;98.30;;;;;;5023261;23;20509;-87
2021/05/21 01:34:29;;;;;;;12.70;9.10;;;11.20;98.30;;;;;;5023131;23;20556;-86
2021/05/21 01:36:31;;;;;;;14.20;9.90;;;11.10;98.30;;;;;;5030045;23;20430;-87
2021/05/21 01:38:36;;;;;;;13.20;9.90;;;11.10;98.30;;;;;;5023328;23;20934;-86
2021/05/21 01:40:39;;;;;;;13.07;9.67;;;11.10;98.30;;;;;;5024274;23;20446;-86
2021/05/21 01:42:44;;;;;;;13.30;10.40;;;11.10;98.30;;;;;;5025712;23;20415;-85
2021/05/21 01:44:50;;;;;;;11.93;10.10;;;11.10;98.30;;;;;;5023725;23;20457;-86
2021/05/21 01:46:52;;;;;;;10.87;8.77;;;11.10;98.30;;;;;;5024603;23;20796;-86
2021/05/21 01:48:58;;;;;;;12.70;10.00;;;11.10;98.30;;;;;;5025486;23;20800;-84
2021/05/21 01:51:04;;;;;;;16.00;9.60;;;11.10;98.30;;;;;;5025684;23;20419;-86
2021/05/21 01:53:06;;;;;;;12.90;9.20;;;11.10;98.30;;;;;;5017985;23;20440;-87
2021/05/21 01:55:10;;;;;;;10.90;9.10;;;11.10;98.30;;;;;;5021731;23;20451;-87
2021/05/21 01:57:16;;;;;;;9.80;8.80;;;11.10;98.30;;;;;;5022048;23;20485;-87
2021/05/21 01:59:19;;;;;;;13.17;9.90;;;11.00;98.30;;;;;;5024327;23;20501;-87
2021/05/21 02:01:21;;;;;;;10.53;9.40;;;11.00;98.30;;;;;;5023810;23;20446;-86
2021/05/21 02:03:23;;;;;;;13.73;9.47;;;10.90;98.30;;;;;;5023606;23;20434;-86
2021/05/21 02:05:26;;;;;;;10.93;9.13;;;10.90;98.30;;;;;;5150292;23;20913;-86
2021/05/21 02:07:28;;;;;;;11.77;9.67;;;10.90;98.30;;;;;;5174685;22;20431;-87
2021/05/21 02:09:35;;;;;;;13.53;9.10;;;10.80;98.30;;;;;;5167822;23;20431;-86
2021/05/21 02:11:39;;;;;;;10.03;9.03;;;10.80;98.30;;;;;;5175214;22;20442;-87
2021/05/21 02:13:42;;;;;;;10.60;9.50;;;10.80;98.30;;;;;;5180641;22;20416;-85
2021/05/21 02:15:44;;;;;;;14.33;9.80;;;10.90;98.30;;;;;;5170988;23;20452;-86
2021/05/21 02:17:47;;;;;;;11.10;8.43;;;10.80;98.30;;;;;;5181957;23;20430;-86
2021/05/21 02:19:49;;;;;;;10.47;8.20;;;10.70;98.30;;;;;;5181970;22;20427;-85
2021/05/21 02:21:52;;;;;;;12.47;9.57;;;10.80;98.30;;;;;;5180907;23;20484;-85
2021/05/21 02:23:54;;;;;;;14.07;9.67;;;10.80;98.30;;;;;;5179707;22;20448;-88
2021/05/21 02:25:56;;;;;;;11.57;9.67;;;10.80;98.30;;;;;;5173766;23;20419;-87
2021/05/21 02:28:00;;;;;;;10.20;8.80;;;10.70;98.30;;;;;;5174459;22;20430;-86
2021/05/21 02:30:03;;;;;;;12.37;9.87;;;10.80;98.30;;;;;;5175932;22;20466;-86
2021/05/21 02:32:06;;;;;;;11.33;9.70;;;10.80;98.30;;;;;;5176574;23;20746;-86
2021/05/21 02:34:11;;;;;;;12.23;9.33;;;10.70;98.30;;;;;;5174185;22;20844;-87
2021/05/21 02:36:14;;;;;;;10.90;9.67;;;10.70;98.30;;;;;;5174755;23;20469;-86
2021/05/21 02:38:16;;;;;;;13.17;9.70;;;10.60;98.30;;;;;;5178278;23;20416;-86
2021/05/21 02:40:19;;;;;;;11.50;9.63;;;10.60;98.30;;;;;;5181933;23;20440;-87
2021/05/21 02:42:21;;;;;;;14.50;10.37;;;10.70;98.30;;;;;;5180165;23;20420;-86
2021/05/21 02:44:25;;;;;;;12.10;9.77;;;10.70;98.30;;;;;;5174836;22;20969;-86
2021/05/21 02:46:28;;;;;;;13.17;9.77;;;10.70;98.30;;;;;;5175425;23;20428;-86
2021/05/21 02:48:30;;;;;;;13.30;9.30;;;10.60;98.30;;;;;;5166436;23;20459;-86
2021/05/21 02:50:33;;;;;;;10.17;8.67;;;10.60;98.30;;;;;;5167009;23;21029;-87
2021/05/21 02:52:35;;;;;;;11.90;9.90;;;10.50;98.30;;;;;;5174605;23;20482;-86
2021/05/21 02:54:38;;;;;;;12.57;9.50;;;10.60;98.30;;;;;;5165283;22;20452;-86
2021/05/21 02:56:40;;;;;;;11.60;9.20;;;10.50;98.30;;;;;;5173384;23;20756;-86
2021/05/21 02:58:43;;;;;;;12.80;9.20;;;10.50;98.30;;;;;;5164891;23;20424;-87
2021/05/21 03:00:46;;;;;;;12.60;9.27;;;10.60;98.30;;;;;;5173439;23;20439;-86
2021/05/21 03:02:49;;;;;;;11.13;9.40;;;10.60;98.30;;;;;;5174328;23;20481;-87
2021/05/21 03:04:52;;;;;;;12.07;9.07;;;10.60;98.30;;;;;;5173839;22;20456;-86
2021/05/21 03:06:54;;;;;;;9.47;8.13;;;10.60;98.30;;;;;;5175906;23;20435;-85
2021/05/21 03:08:57;;;;;;;13.73;9.90;;;10.60;98.30;;;;;;5174111;23;20423;-86
2021/05/21 03:10:59;;;;;;;13.40;9.53;;;10.70;98.30;;;;;;5175461;23;20926;-86
2021/05/21 03:13:02;;;;;;;10.13;8.73;;;10.70;98.30;;;;;;5167195;23;20434;-86
2021/05/21 03:15:05;;;;;;;11.33;9.27;;;10.70;98.30;;;;;;5173642;22;20531;-86
2021/05/21 03:17:08;;;;;;;10.10;8.80;;;10.70;98.30;;;;;;5173606;23;20431;-86
2021/05/21 03:19:11;;;;;;;12.17;9.90;;;10.70;98.30;;;;;;5176386;23;20707;-85
2021/05/21 03:21:13;;;;;;;11.17;9.57;;;10.80;98.30;;;;;;5176999;23;20444;-87
2021/05/21 03:23:16;;;;;;;11.93;9.70;;;10.80;98.30;;;;;;5174881;23;20422;-86
2021/05/21 03:25:18;;;;;;;11.40;9.20;;;10.80;98.30;;;;;;5175842;22;20455;-85
2021/05/21 03:27:21;;;;;;;12.00;9.80;;;10.70;98.30;;;;;;5177846;23;20431;-85
2021/05/21 03:29:35;;;;;;;11.27;9.93;;;10.80;98.30;;;;;;5183451;23;20511;-87
2021/05/21 03:31:37;;;;;;;13.47;9.70;;;10.80;98.30;;;;;;5174870;23;20558;-87
2021/05/21 03:33:40;;;;;;;10.27;9.27;;;10.80;98.30;;;;;;5172993;22;20427;-87
2021/05/21 03:35:43;;;;;;;12.47;9.60;;;10.80;98.30;;;;;;5165221;23;21143;-87
2021/05/21 03:37:45;;;;;;;11.57;9.33;;;10.70;98.30;;;;;;5173182;22;20839;-87
2021/05/21 03:39:48;;;;;;;10.60;9.13;;;10.70;98.30;;;;;;5173477;23;20747;-87
2021/05/21 03:41:50;;;;;;;11.33;9.50;;;10.70;98.30;;;;;;5174208;23;20443;-87
2021/05/21 03:43:53;;;;;;;12.77;9.13;;;10.70;98.30;;;;;;5172561;22;20996;-86
2021/05/21 03:45:55;;;;;;;10.63;9.37;;;10.70;98.30;;;;;;5175718;23;20617;-87
2021/05/21 03:47:57;;;;;;;10.83;9.43;;;10.70;98.30;;;;;;5180816;23;20428;-87
2021/05/21 03:50:01;;;;;;;11.87;9.90;;;10.70;98.30;;;;;;5172419;23;20844;-86
2021/05/21 03:52:04;;;;;;;12.10;9.70;;;10.70;98.30;;;;;;5172652;23;20450;-87
2021/05/21 03:54:07;;;;;;;11.70;9.23;;;10.70;98.30;;;;;;5170481;22;20856;-87
2021/05/21 03:56:11;;;;;;;10.83;9.23;;;10.80;98.30;;;;;;5172482;23;20534;-86
2021/05/21 03:58:14;;;;;;;10.93;9.83;;;10.80;98.30;;;;;;5172387;23;20763;-86
2021/05/21 04:00:19;;;;;;;32.57;19.60;;;10.80;98.30;;;;;;5171814;23;20514;-87
2021/05/21 04:02:24;;;;;;;12.23;10.17;;;10.90;98.30;;;;;;5171927;22;20563;-86
2021/05/21 04:04:27;;;;;;;11.13;9.73;;;10.80;98.30;;;;;;5172275;22;20781;-86
2021/05/21 04:06:31;;;;;;;10.53;8.60;;;10.80;98.30;;;;;;5172812;22;20803;-87
2021/05/21 04:08:35;;;;;;;13.60;9.63;;;10.80;98.30;;;;;;5172332;23;20427;-86
2021/05/21 04:10:37;;;;;;;12.60;9.07;;;10.90;98.30;;;;;;5172648;23;20462;-88
2021/05/21 04:12:40;;;;;;;10.83;8.53;;;10.90;98.30;;;;;;5172149;23;20768;-87
2021/05/21 04:14:42;;;;;;;9.90;7.90;;;10.90;98.30;;;;;;5164341;22;20923;-87
2021/05/21 04:16:45;;;;;;;10.10;8.17;;;10.90;98.30;;;;;;5175295;23;20451;-87
2021/05/21 04:18:47;;;;;;;13.83;9.80;;;10.80;98.30;;;;;;5174090;23;20764;-86
2021/05/21 04:20:49;;;;;;;10.20;8.63;;;10.90;98.30;;;;;;5172919;23;20447;-86
2021/05/21 04:22:53;;;;;;;9.80;8.57;;;11.00;98.30;;;;;;5173208;23;20478;-86
2021/05/21 04:24:56;;;;;;;11.50;8.77;;;10.90;98.30;;;;;;5173349;22;20779;-86
2021/05/21 04:26:58;;;;;;;10.57;9.47;;;10.90;98.30;;;;;;5175182;23;20511;-85
2021/05/21 04:29:00;;;;;;;9.03;8.13;;;11.00;98.30;;;;;;5176316;23;21006;-85
2021/05/21 04:31:03;;;;;;;10.50;8.40;;;11.00;98.30;;;;;;5172945;23;20519;-87
2021/05/21 04:33:05;;;;;;;8.87;7.90;;;11.10;98.30;;;;;;5164544;23;20438;-87
2021/05/21 04:35:09;;;;;;;11.53;8.07;;;11.10;98.30;;;;;;5174602;22;20519;-87
2021/05/21 04:37:12;;;;;;;10.67;8.47;;;11.10;98.30;;;;;;5175278;23;20420;-86
2021/05/21 04:39:15;;;;;;;8.50;7.50;;;11.10;98.30;;;;;;5176018;23;20506;-86
2021/05/21 04:41:17;;;;;;;10.50;8.10;;;11.10;98.30;;;;;;5175242;23;20843;-86
2021/05/21 04:43:25;;;;;;;9.93;7.90;;;11.10;98.30;;;;;;5174670;23;20455;-87
2021/05/21 04:45:30;;;;;;;11.30;8.17;;;11.10;98.30;;;;;;5174776;23;20424;-87
2021/05/21 04:47:32;;;;;;;11.43;8.47;;;11.10;98.30;;;;;;5174355;23;20499;-87
2021/05/21 04:49:35;;;;;;;9.90;8.03;;;11.10;98.30;;;;;;5172896;23;20459;-87
2021/05/21 04:51:38;;;;;;;11.43;7.77;;;11.20;98.30;;;;;;5172094;23;20423;-87
2021/05/21 04:53:41;;;;;;;8.33;7.43;;;11.20;98.30;;;;;;5178750;22;20427;-85
2021/05/21 04:55:46;;;;;;;8.67;7.53;;;11.20;98.30;;;;;;5172915;23;20531;-85
2021/05/21 04:57:50;;;;;;;8.67;6.80;;;11.30;98.30;;;;;;5174686;23;20428;-86
2021/05/21 04:59:52;;;;;;;8.97;7.10;;;11.30;98.30;;;;;;5173958;23;20734;-87
2021/05/21 05:01:55;;;;;;;15.20;7.50;;;11.40;98.30;;;;;;5172504;23;20439;-87
2021/05/21 05:12:13;;;;;;;11.80;7.80;;;11.40;98.30;;;;;;5152203;23;20444;-84
2021/05/21 05:14:17;;;;;;;8.10;6.47;;;11.40;98.30;;;;;;5172739;22;20948;-86
2021/05/21 05:16:20;;;;;;;8.50;7.00;;;11.40;98.30;;;;;;5173577;23;20450;-85
2021/05/21 05:18:24;;;;;;;8.57;7.67;;;11.40;98.30;;;;;;5175005;23;20427;-85
2021/05/21 05:20:26;;;;;;;8.43;7.47;;;11.50;98.30;;;;;;5174129;23;20408;-85
2021/05/21 05:22:29;;;;;;;8.63;7.10;;;11.50;98.30;;;;;;5185854;23;20523;-83
2021/05/21 05:24:34;;;;;;;13.87;9.40;;;11.50;98.30;;;;;;5180176;22;20459;-84
2021/05/21 05:26:36;;;;;;;8.60;7.70;;;11.50;98.30;;;;;;5176781;23;20435;-85
2021/05/21 05:28:42;;;;;;;6.70;6.10;;;11.50;98.30;;;;;;5177306;23;20438;-84
2021/05/21 05:30:56;;;;;;;14.07;7.67;;;11.60;98.30;;;;;;5187371;23;20415;-85
2021/05/21 05:32:58;;;;;;;7.43;5.63;;;11.50;98.30;;;;;;5174735;23;20408;-84
2021/05/21 05:35:01;;;;;;;6.93;6.27;;;11.60;98.30;;;;;;5183125;22;20475;-84
2021/05/21 05:37:03;;;;;;;7.27;6.57;;;11.60;98.30;;;;;;5168374;23;20432;-84
2021/05/21 05:39:06;;;;;;;7.23;6.50;;;11.60;98.30;;;;;;5165830;23;20464;-85
2021/05/21 05:41:08;;;;;;;7.60;6.90;;;11.70;98.30;;;;;;5174038;23;20499;-83
2021/05/21 05:43:11;;;;;;;8.13;6.80;;;11.80;98.30;;;;;;5173845;23;20452;-83
2021/05/21 05:45:15;;;;;;;7.10;6.37;;;11.80;98.30;;;;;;5165287;22;20903;-83
2021/05/21 05:47:20;;;;;;;12.30;6.73;;;11.90;98.30;;;;;;5166386;23;20416;-82
2021/05/21 05:49:23;;;;;;;6.90;6.20;;;11.90;98.30;;;;;;5167229;23;20418;-83
2021/05/21 05:51:25;;;;;;;7.73;6.20;;;11.90;98.30;;;;;;5168044;23;20432;-83
2021/05/21 05:53:33;;;;;;;6.73;6.00;;;11.90;98.30;;;;;;5169239;23;20476;-83
2021/05/21 05:55:36;;;;;;;8.30;6.50;;;12.00;98.30;;;;;;5167417;22;20753;-83
2021/05/21 05:57:41;;;;;;;9.73;6.00;;;12.00;98.30;;;;;;5169171;23;20428;-83
2021/05/21 05:59:43;;;;;;;6.77;6.07;;;12.00;98.30;;;;;;5169794;23;20428;-83
2021/05/21 06:01:46;;;;;;;6.60;6.00;;;12.10;98.30;;;;;;5181014;23;20510;-83
2021/05/21 06:03:49;;;;;;;7.00;6.30;;;12.10;98.30;;;;;;5179488;22;20499;-82
2021/05/21 06:05:52;;;;;;;6.93;5.97;;;12.10;98.30;;;;;;5176014;23;20903;-82
2021/05/21 06:07:54;;;;;;;6.10;5.50;;;12.10;98.30;;;;;;5188950;23;20518;-85
2021/05/21 06:09:57;;;;;;;7.60;5.80;;;12.10;98.30;;;;;;5190417;23;20416;-82
2021/05/21 06:11:59;;;;;;;8.50;6.33;;;12.20;98.30;;;;;;5183499;23;20427;-81
2021/05/21 06:14:02;;;;;;;7.13;5.37;;;12.20;98.30;;;;;;5181092;22;20459;-82
2021/05/21 06:16:04;;;;;;;7.47;5.80;;;12.20;98.30;;;;;;5190961;23;20467;-83
2021/05/21 06:18:09;;;;;;;6.53;5.73;;;12.20;98.30;;;;;;5180901;23;20444;-83
2021/05/21 06:20:13;;;;;;;6.93;6.07;;;12.20;98.30;;;;;;5180696;23;20420;-84
2021/05/21 06:22:15;;;;;;;7.53;5.83;;;12.20;98.30;;;;;;5191272;23;20463;-82
2021/05/21 06:24:18;;;;;;;7.57;5.90;;;12.20;98.30;;;;;;5187546;22;20470;-83
2021/05/21 06:26:31;;;;;;;6.10;5.50;;;12.20;98.30;;;;;;5179218;23;20427;-85
2021/05/21 06:28:41;;;;;;;7.90;5.10;;;12.20;98.30;;;;;;5176098;23;20756;-84
2021/05/21 06:30:47;;;;;;;8.03;5.70;;;12.20;98.30;;;;;;5177133;23;20424;-84
2021/05/21 06:32:49;;;;;;;7.50;5.77;;;12.30;98.30;;;;;;5177458;23;20458;-87
2021/05/21 06:34:53;;;;;;;6.60;5.60;;;12.40;98.30;;;;;;5177151;22;20940;-85
2021/05/21 06:36:59;;;;;;;8.50;5.70;;;12.40;98.30;;;;;;5176006;23;20943;-83
2021/05/21 06:39:01;;;;;;;6.63;5.77;;;12.40;98.30;;;;;;5176021;23;20455;-83
2021/05/21 06:41:07;;;;;;;6.83;5.30;;;12.50;98.30;;;;;;5168936;23;20432;-83
2021/05/21 06:43:14;;;;;;;5.80;5.30;;;12.50;98.30;;;;;;5177181;23;20440;-83
2021/05/21 06:45:16;;;;;;;6.33;5.70;;;12.50;98.30;;;;;;5175618;22;20450;-84
2021/05/21 06:47:19;;;;;;;7.13;5.60;;;12.60;98.30;;;;;;5176861;23;20911;-84
2021/05/21 06:49:21;;;;;;;6.07;5.57;;;12.60;98.30;;;;;;5176784;23;20447;-82
2021/05/21 06:51:27;;;;;;;8.10;5.43;;;12.60;98.30;;;;;;5175960;23;20428;-85
2021/05/21 06:53:30;;;;;;;5.73;5.10;;;12.60;98.30;;;;;;5174938;23;20518;-82
2021/05/21 06:55:32;;;;;;;7.63;5.00;;;12.70;98.30;;;;;;5175283;22;20450;-83
2021/05/21 06:57:35;;;;;;;7.47;5.17;;;12.60;98.30;;;;;;5176127;23;20806;-82
2021/05/21 06:59:37;;;;;;;5.93;5.13;;;12.70;98.30;;;;;;5175946;23;20885;-82
2021/05/21 07:01:40;;;;;;;6.40;5.50;;;12.60;98.30;;;;;;5175331;23;20483;-83
2021/05/21 07:03:42;;;;;;;6.83;6.03;;;12.80;98.30;;;;;;5175320;22;20419;-83
2021/05/21 07:05:45;;;;;;;5.97;5.17;;;12.70;98.30;;;;;;5174132;23;20435;-82
2021/05/21 07:07:48;;;;;;;8.50;5.40;;;12.80;98.30;;;;;;5175183;23;20424;-82
2021/05/21 07:09:51;;;;;;;6.40;5.37;;;12.90;98.30;;;;;;5175856;23;20449;-83
2021/05/21 07:11:53;;;;;;;8.23;5.37;;;13.00;98.30;;;;;;5176291;22;20424;-82
2021/05/21 07:13:57;;;;;;;7.00;5.00;;;13.00;98.30;;;;;;5176697;22;20875;-82
2021/05/21 07:16:01;;;;;;;5.67;5.07;;;13.10;98.30;;;;;;5175924;23;20428;-83
2021/05/21 07:18:03;;;;;;;5.93;5.07;;;13.00;98.30;;;;;;5176632;23;20499;-82
2021/05/21 07:20:10;;;;;;;6.80;5.23;;;13.10;98.30;;;;;;5168609;23;20515;-82
2021/05/21 07:22:12;;;;;;;6.57;4.97;;;13.10;98.30;;;;;;5176796;23;20442;-82
2021/05/21 07:24:15;;;;;;;8.67;5.60;;;13.10;98.30;;;;;;5175805;22;20446;-83
2021/05/21 07:26:18;;;;;;;5.13;4.63;;;13.20;98.30;;;;;;5177010;23;20430;-83
2021/05/21 07:28:20;;;;;;;8.27;5.30;;;13.30;98.30;;;;;;5168945;23;20553;-83
2021/05/21 07:30:23;;;;;;;5.87;4.90;;;13.40;98.30;;;;;;5167942;23;20909;-82
2021/05/21 07:32:26;;;;;;;7.73;4.83;;;13.50;98.30;;;;;;5176299;23;20412;-82
2021/05/21 07:34:29;;;;;;;6.30;4.50;;;13.50;98.30;;;;;;5175763;22;20447;-82
2021/05/21 07:36:34;;;;;;;4.37;3.97;;;13.60;98.30;;;;;;5175896;23;20433;-82
2021/05/21 07:38:37;;;;;;;6.53;4.00;;;13.70;98.30;;;;;;5175451;23;20447;-82
2021/05/21 07:40:40;;;;;;;5.77;3.90;;;14.00;98.30;;;;;;5175660;23;20431;-83
2021/05/21 07:42:43;;;;;;;4.57;3.80;;;14.30;98.30;;;;;;5165592;23;20479;-83
2021/05/21 07:44:45;;;;;;;3.90;3.50;;;14.60;98.30;;;;;;5172843;22;20992;-82
2021/05/21 07:46:48;;;;;;;6.80;4.40;;;14.80;98.30;;;;;;5173410;23;20800;-82
2021/05/21 07:48:50;;;;;;;3.67;3.27;;;14.80;98.30;;;;;;5174575;23;20424;-83
2021/05/21 07:50:53;;;;;;;3.63;3.30;;;14.80;98.30;;;;;;5174687;23;20446;-82
2021/05/21 07:52:55;;;;;;;10.63;3.90;;;14.80;98.30;;;;;;5164116;23;20464;-83
2021/05/21 07:54:59;;;;;;;4.43;3.63;;;14.90;98.30;;;;;;5174929;22;20451;-82
2021/05/21 07:57:03;;;;;;;5.20;4.20;;;15.00;98.30;;;;;;5175091;23;20426;-82
2021/05/21 07:59:08;;;;;;;5.57;4.93;;;15.00;98.30;;;;;;5175920;22;20427;-83
2021/05/21 08:01:10;;;;;;;6.43;3.87;;;15.20;98.30;;;;;;5175645;23;20406;-82
2021/05/21 08:03:15;;;;;;;7.97;6.53;;;15.10;98.30;;;;;;5174414;23;20953;-82
2021/05/21 08:05:19;;;;;;;8.80;4.17;;;15.10;98.30;;;;;;5172102;22;20498;-84
2021/05/21 08:07:22;;;;;;;4.80;4.33;;;15.30;98.30;;;;;;5173493;23;20431;-83
2021/05/21 08:09:25;;;;;;;5.40;4.00;;;15.50;98.30;;;;;;5164940;23;20432;-83
2021/05/21 08:11:27;;;;;;;4.37;3.97;;;15.60;98.30;;;;;;5165818;23;21091;-81
2021/05/21 08:13:31;;;;;;;5.20;3.63;;;15.70;98.30;;;;;;5180287;22;20491;-83
2021/05/21 08:15:33;;;;;;;4.53;4.07;;;15.40;98.30;;;;;;5170920;22;20452;-84
2021/05/21 08:17:35;;;;;;;4.70;4.30;;;15.30;98.30;;;;;;5179128;23;20436;-85
2021/05/21 08:19:45;;;;;;;4.70;4.30;;;15.20;98.30;;;;;;5178835;23;20419;-83
2021/05/21 08:21:47;;;;;;;6.57;4.60;;;15.20;98.30;;;;;;5179516;23;20428;-83
2021/05/21 08:23:50;;;;;;;5.20;4.60;;;15.10;98.30;;;;;;5180114;22;20448;-87
2021/05/21 08:25:52;;;;;;;5.00;4.40;;;14.90;98.30;;;;;;5177882;23;20826;-84
2021/05/21 08:27:55;;;;;;;5.20;4.70;;;14.70;98.30;;;;;;5181392;23;20428;-83
2021/05/21 08:29:58;;;;;;;4.33;3.93;;;14.70;98.30;;;;;;5180841;23;20434;-85
2021/05/21 08:32:01;;;;;;;4.60;3.30;;;14.50;98.30;;;;;;5172782;23;20913;-83
2021/05/21 08:34:04;;;;;;;2.80;2.60;;;13.30;98.30;;;;;;5175417;22;20440;-81
2021/05/21 08:36:07;;;;;;;1.20;1.00;;;11.20;98.30;;;;;;5175798;23;20423;-81
2021/05/21 08:38:10;;;;;;;1.30;1.07;;;9.90;98.30;;;;;;5174801;23;20424;-81
2021/05/21 08:40:20;;;;;;;1.27;1.07;;;9.70;98.30;;;;;;5167423;23;20514;-81
2021/05/21 08:42:25;;;;;;;1.30;1.10;;;9.80;98.30;;;;;;5176699;23;20404;-81
2021/05/21 08:44:32;;;;;;;1.30;1.10;;;9.90;98.30;;;;;;5174104;22;20411;-82
2021/05/21 08:46:36;;;;;;;1.30;1.03;;;10.00;98.30;;;;;;5169017;23;20412;-82
2021/05/21 08:48:39;;;;;;;1.30;1.00;;;10.10;98.30;;;;;;5168715;23;20473;-81
2021/05/21 08:50:42;;;;;;;1.30;1.00;;;10.10;98.30;;;;;;5178730;23;20398;-82
2021/05/21 08:52:46;;;;;;;1.20;1.10;;;10.10;98.30;;;;;;5182483;23;20498;-82
2021/05/21 08:54:49;;;;;;;1.30;1.20;;;10.10;98.30;;;;;;5181475;22;20446;-82
2021/05/21 08:56:51;;;;;;;1.30;1.03;;;10.20;98.30;;;;;;5177223;23;20427;-82
2021/05/21 08:58:53;;;;;;;1.27;1.00;;;10.20;98.30;;;;;;5184435;23;20426;-82
2021/05/21 09:00:56;;;;;;;1.30;1.10;;;10.40;98.30;;;;;;5183526;23;20429;-82
2021/05/21 09:03:16;;;;;;;1.20;1.10;;;10.40;98.30;;;;;;5171162;23;20773;-82
2021/05/21 09:05:19;;;;;;;1.30;1.10;;;10.50;98.30;;;;;;5171208;22;20776;-82
2021/05/21 09:07:22;;;;;;;1.23;1.00;;;10.60;98.30;;;;;;5174156;23;20420;-82
2021/05/21 09:09:25;;;;;;;1.27;1.00;;;10.70;98.30;;;;;;5173069;23;20432;-82
2021/05/21 09:11:31;;;;;;;1.30;1.20;;;10.80;98.30;;;;;;5170479;23;20514;-82
2021/05/21 09:13:34;;;;;;;1.23;1.10;;;10.80;98.30;;;;;;5179686;23;20427;-82
2021/05/21 09:15:36;;;;;;;1.30;1.10;;;10.80;98.30;;;;;;5170587;22;20452;-83
2021/05/21 09:17:54;;;;;;;1.20;1.10;;;10.90;98.30;;;;;;5178374;23;20428;-82
2021/05/21 09:19:57;;;;;;;1.23;1.00;;;11.00;98.30;;;;;;5179491;23;20408;-81
2021/05/21 09:22:20;;;;;;;1.23;1.00;;;11.00;98.30;;;;;;5168325;23;20424;-81
2021/05/21 09:24:26;;;;;;;1.20;1.00;;;11.10;98.30;;;;;;5167081;22;20458;-82
2021/05/21 09:26:39;;;;;;;1.30;1.00;;;11.30;98.30;;;;;;5178342;23;20487;-82
2021/05/21 09:28:43;;;;;;;1.20;1.00;;;11.40;98.30;;;;;;5169377;23;20479;-82
2021/05/21 09:31:08;;;;;;;1.20;1.00;;;11.50;98.30;;;;;;5178437;23;21179;-81
2021/05/21 09:33:10;;;;;;;1.20;1.00;;;11.70;98.30;;;;;;5169721;23;20408;-81
2021/05/21 09:35:16;;;;;;;1.30;1.00;;;11.90;98.30;;;;;;5168186;22;20768;-82
2021/05/21 09:37:22;;;;;;;1.27;1.10;;;12.00;98.30;;;;;;5169252;23;20925;-82
2021/05/21 09:39:30;;;;;;;2.33;1.97;;;12.10;98.30;;;;;;5169121;23;20408;-81
2021/05/21 09:41:44;;;;;;;1.30;1.00;;;12.10;98.30;;;;;;5170426;23;20424;-82
2021/05/21 09:43:50;;;;;;;1.30;1.00;;;12.00;98.30;;;;;;5177034;22;20760;-83
2021/05/21 09:45:53;;;;;;;1.20;1.00;;;12.20;98.30;;;;;;5167848;23;20481;-82
2021/05/21 09:47:57;;;;;;;1.27;1.00;;;12.40;98.30;;;;;;5176006;23;20420;-82
2021/05/21 09:50:03;;;;;;;1.70;1.47;;;12.80;98.30;;;;;;5178234;23;20506;-81
2021/05/21 09:52:09;;;;;;;1.20;1.00;;;13.10;98.30;;;;;;5168947;23;20446;-82
2021/05/21 09:54:12;;;;;;;1.20;1.00;;;13.40;98.30;;;;;;5166294;22;20448;-81
2021/05/21 09:56:20;;;;;;;1.30;1.00;;;13.50;98.30;;;;;;5174197;23;20416;-82
2021/05/21 09:58:27;;;;;;;1.20;1.03;;;13.20;98.30;;;;;;5166591;23;20422;-82
2021/05/21 10:00:35;;;;;;;1.20;1.00;;;13.30;98.30;;;;;;5175763;23;20518;-83
2021/05/21 10:02:38;;;;;;;1.20;1.10;;;13.50;98.30;;;;;;5167926;23;20427;-82
2021/05/21 10:04:40;;;;;;;1.30;1.10;;;13.40;98.30;;;;;;5173882;22;20526;-83
2021/05/21 10:06:45;;;;;;;1.20;1.00;;;13.60;98.30;;;;;;5165871;23;20443;-82
2021/05/21 10:08:48;;;;;;;1.20;1.00;;;13.70;98.30;;;;;;5174723;23;20419;-83
2021/05/21 10:10:51;;;;;;;1.20;1.00;;;13.90;98.30;;;;;;5174228;23;20422;-83
2021/05/21 10:12:55;;;;;;;1.50;1.40;;;13.90;98.30;;;;;;5174598;23;20424;-83
2021/05/21 10:14:58;;;;;;;1.20;1.00;;;14.00;98.30;;;;;;5165989;22;20471;-83
2021/05/21 10:17:01;;;;;;;1.20;1.00;;;14.00;98.30;;;;;;5167039;23;20430;-82
2021/05/21 10:19:05;;;;;;;1.20;1.00;;;14.10;98.30;;;;;;5167592;23;20460;-83
2021/05/21 10:21:10;;;;;;;1.20;1.00;;;14.20;98.30;;;;;;5175601;23;20764;-83
2021/05/21 10:23:18;;;;;;;1.20;1.00;;;14.30;98.30;;;;;;5166702;23;20970;-82
2021/05/21 10:25:25;;;;;;;1.20;1.00;;;14.40;98.30;;;;;;5165043;22;20527;-82
2021/05/21 10:27:30;;;;;;;1.20;1.10;;;14.50;98.30;;;;;;5173725;23;20475;-83
2021/05/21 10:29:33;;;;;;;1.20;1.00;;;14.60;98.30;;;;;;5167039;23;20419;-81
2021/05/21 10:31:36;;;;;;;1.40;1.30;;;14.90;98.30;;;;;;5167588;23;20431;-83
2021/05/21 10:33:40;;;;;;;1.20;1.00;;;15.00;98.30;;;;;;5174475;23;20412;-82
2021/05/21 10:35:43;;;;;;;1.60;1.47;;;15.00;98.30;;;;;;5173419;23;20827;-82
2021/05/21 10:37:47;;;;;;;1.20;1.00;;;14.80;98.30;;;;;;5166006;23;20462;-82
2021/05/21 10:40:14;;;;;;;1.20;1.00;;;14.80;98.30;;;;;;5166208;23;20419;-83
2021/05/21 10:42:21;;;;;;;1.20;1.10;;;14.70;98.30;;;;;;5174351;23;20756;-82
2021/05/21 10:44:26;;;;;;;1.20;1.00;;;14.80;98.30;;;;;;5165021;22;20459;-83
2021/05/21 10:46:31;;;;;;;1.20;1.00;;;15.00;98.30;;;;;;5166893;23;20428;-82
2021/05/21 10:48:34;;;;;;;1.20;1.00;;;15.20;98.30;;;;;;5165686;23;20422;-83